sensor_id;sensor_type;location;lat;lon;timestamp;P1;durP1;ratioP1;P2;durP2;ratioP2
5245;SDS011;54412;51.206;6.888;2023-05-23T00:00:23;12.13;;;10.73;;
5245;SDS011;54412;51.206;6.888;2023-05-23T00:02:49;16.03;;;10.07;;
5245;SDS011;54412;51.206;6.888;2023-05-23T00:05:15;11.77;;;9.50;;
5245;SDS011;54412;51.206;6.888;2023-05-23T00:07:42;12.57;;;9.30;;
5245;SDS011;54412;51.206;6.888;2023-05-23T00:10:09;11.83;;;9.20;;
5245;SDS011;54412;51.206;6.888;2023-05-23T00:12:36;10.40;;;9.30;;
5245;SDS011;54412;51.206;6.888;2023-05-23T00:15:03;17.23;;;9.87;;
5245;SDS011;54412;51.206;6.888;2023-05-23T00:17:32;11.53;;;8.60;;
5245;SDS011;54412;51.206;6.888;2023-05-23T00:19:57;12.53;;;9.20;;
5245;SDS011;54412;51.206;6.888;2023-05-23T00:22:23;9.60;;;8.67;;
5245;SDS011;54412;51.206;6.888;2023-05-23T00:24:49;11.63;;;8.27;;
5245;SDS011;54412;51.206;6.888;2023-05-23T00:27:15;11.93;;;7.83;;
5245;SDS011;54412;51.206;6.888;2023-05-23T00:29:40;9.10;;;8.20;;
5245;SDS011;54412;51.206;6.888;2023-05-23T00:32:06;7.83;;;7.13;;
5245;SDS011;54412;51.206;6.888;2023-05-23T00:34:31;10.33;;;6.83;;
5245;SDS011;54412;51.206;6.888;2023-05-23T00:36:58;8.33;;;7.40;;
5245;SDS011;54412;51.206;6.888;2023-05-23T00:39:26;9.20;;;7.27;;
5245;SDS011;54412;51.206;6.888;2023-05-23T00:41:51;8.57;;;7.77;;
5245;SDS011;54412;51.206;6.888;2023-05-23T00:44:17;10.60;;;7.23;;
5245;SDS011;54412;51.206;6.888;2023-05-23T00:46:44;7.53;;;6.83;;
5245;SDS011;54412;51.206;6.888;2023-05-23T00:49:16;9.27;;;7.10;;
5245;SDS011;54412;51.206;6.888;2023-05-23T00:51:44;7.50;;;6.67;;
5245;SDS011;54412;51.206;6.888;2023-05-23T00:54:10;8.33;;;6.67;;
5245;SDS011;54412;51.206;6.888;2023-05-23T00:56:39;9.13;;;7.50;;
5245;SDS011;54412;51.206;6.888;2023-05-23T00:59:05;8.80;;;7.90;;
5245;SDS011;54412;51.206;6.888;2023-05-23T01:01:31;7.83;;;7.03;;
5245;SDS011;54412;51.206;6.888;2023-05-23T01:03:57;8.53;;;7.40;;
5245;SDS011;54412;51.206;6.888;2023-05-23T01:06:23;7.27;;;6.57;;
5245;SDS011;54412;51.206;6.888;2023-05-23T01:08:49;9.17;;;6.60;;
5245;SDS011;54412;51.206;6.888;2023-05-23T01:11:22;6.80;;;6.10;;
5245;SDS011;54412;51.206;6.888;2023-05-23T01:14:02;6.93;;;5.93;;
5245;SDS011;54412;51.206;6.888;2023-05-23T01:16:54;7.90;;;5.67;;
5245;SDS011;54412;51.206;6.888;2023-05-23T01:22:22;5.37;;;4.87;;
5245;SDS011;54412;51.206;6.888;2023-05-23T01:28:36;10.33;;;5.20;;
5245;SDS011;54412;51.206;6.888;2023-05-23T01:31:10;5.03;;;4.37;;
5245;SDS011;54412;51.206;6.888;2023-05-23T01:33:37;4.10;;;3.80;;
5245;SDS011;54412;51.206;6.888;2023-05-23T01:36:05;5.30;;;3.97;;
5245;SDS011;54412;51.206;6.888;2023-05-23T01:38:31;4.50;;;4.10;;
5245;SDS011;54412;51.206;6.888;2023-05-23T01:40:57;4.93;;;4.03;;
5245;SDS011;54412;51.206;6.888;2023-05-23T01:43:23;5.10;;;4.60;;
5245;SDS011;54412;51.206;6.888;2023-05-23T01:45:50;4.57;;;3.87;;
5245;SDS011;54412;51.206;6.888;2023-05-23T01:48:20;4.13;;;3.70;;
5245;SDS011;54412;51.206;6.888;2023-05-23T01:50:47;5.70;;;4.20;;
5245;SDS011;54412;51.206;6.888;2023-05-23T01:53:14;4.40;;;4.00;;
5245;SDS011;54412;51.206;6.888;2023-05-23T01:55:46;9.60;;;4.00;;
5245;SDS011;54412;51.206;6.888;2023-05-23T01:58:12;3.90;;;3.60;;
5245;SDS011;54412;51.206;6.888;2023-05-23T02:00:38;4.73;;;3.30;;
5245;SDS011;54412;51.206;6.888;2023-05-23T02:03:04;4.50;;;3.87;;
5245;SDS011;54412;51.206;6.888;2023-05-23T02:05:30;5.00;;;3.73;;
5245;SDS011;54412;51.206;6.888;2023-05-23T02:07:55;7.80;;;4.00;;
5245;SDS011;54412;51.206;6.888;2023-05-23T02:10:21;5.77;;;4.30;;
5245;SDS011;54412;51.206;6.888;2023-05-23T02:12:47;5.17;;;4.10;;
5245;SDS011;54412;51.206;6.888;2023-05-23T02:15:13;4.30;;;3.90;;
5245;SDS011;54412;51.206;6.888;2023-05-23T02:17:38;4.47;;;4.07;;
5245;SDS011;54412;51.206;6.888;2023-05-23T02:20:05;4.20;;;3.47;;
5245;SDS011;54412;51.206;6.888;2023-05-23T02:22:32;4.73;;;4.33;;
5245;SDS011;54412;51.206;6.888;2023-05-23T02:24:58;5.80;;;3.83;;
5245;SDS011;54412;51.206;6.888;2023-05-23T02:27:24;7.87;;;5.03;;
5245;SDS011;54412;51.206;6.888;2023-05-23T02:29:49;8.33;;;4.87;;
5245;SDS011;54412;51.206;6.888;2023-05-23T02:32:15;7.17;;;4.50;;
5245;SDS011;54412;51.206;6.888;2023-05-23T02:34:41;4.53;;;4.10;;
5245;SDS011;54412;51.206;6.888;2023-05-23T02:37:11;5.53;;;3.83;;
5245;SDS011;54412;51.206;6.888;2023-05-23T02:39:40;6.17;;;4.20;;
5245;SDS011;54412;51.206;6.888;2023-05-23T02:42:07;5.33;;;4.37;;
5245;SDS011;54412;51.206;6.888;2023-05-23T02:44:33;5.53;;;3.83;;
5245;SDS011;54412;51.206;6.888;2023-05-23T02:46:58;4.43;;;4.00;;
5245;SDS011;54412;51.206;6.888;2023-05-23T02:49:24;4.60;;;4.20;;
5245;SDS011;54412;51.206;6.888;2023-05-23T02:51:50;8.57;;;4.57;;
5245;SDS011;54412;51.206;6.888;2023-05-23T02:54:15;9.80;;;4.57;;
5245;SDS011;54412;51.206;6.888;2023-05-23T02:56:41;5.10;;;4.60;;
5245;SDS011;54412;51.206;6.888;2023-05-23T02:59:08;4.60;;;4.17;;
5245;SDS011;54412;51.206;6.888;2023-05-23T03:01:33;4.73;;;4.30;;
5245;SDS011;54412;51.206;6.888;2023-05-23T03:03:59;5.93;;;4.67;;
5245;SDS011;54412;51.206;6.888;2023-05-23T03:06:25;6.20;;;4.70;;
5245;SDS011;54412;51.206;6.888;2023-05-23T03:08:51;5.47;;;4.47;;
5245;SDS011;54412;51.206;6.888;2023-05-23T03:11:17;5.10;;;4.60;;
5245;SDS011;54412;51.206;6.888;2023-05-23T03:13:42;5.93;;;4.43;;
5245;SDS011;54412;51.206;6.888;2023-05-23T03:16:08;4.50;;;4.10;;
5245;SDS011;54412;51.206;6.888;2023-05-23T03:18:35;9.20;;;4.40;;
5245;SDS011;54412;51.206;6.888;2023-05-23T03:21:01;7.13;;;5.80;;
5245;SDS011;54412;51.206;6.888;2023-05-23T03:23:27;10.30;;;5.00;;
5245;SDS011;54412;51.206;6.888;2023-05-23T03:25:53;8.23;;;5.53;;
5245;SDS011;54412;51.206;6.888;2023-05-23T03:28:18;8.10;;;5.90;;
5245;SDS011;54412;51.206;6.888;2023-05-23T03:30:44;7.30;;;5.80;;
5245;SDS011;54412;51.206;6.888;2023-05-23T03:33:10;7.70;;;4.90;;
5245;SDS011;54412;51.206;6.888;2023-05-23T03:35:36;10.03;;;5.10;;
5245;SDS011;54412;51.206;6.888;2023-05-23T03:38:01;10.03;;;5.47;;
5245;SDS011;54412;51.206;6.888;2023-05-23T03:40:27;11.67;;;5.93;;
5245;SDS011;54412;51.206;6.888;2023-05-23T03:43:03;7.50;;;5.73;;
5245;SDS011;54412;51.206;6.888;2023-05-23T03:45:30;8.80;;;5.43;;
5245;SDS011;54412;51.206;6.888;2023-05-23T03:47:57;11.83;;;6.60;;
5245;SDS011;54412;51.206;6.888;2023-05-23T03:50:24;6.00;;;4.93;;
5245;SDS011;54412;51.206;6.888;2023-05-23T03:52:50;5.70;;;5.20;;
5245;SDS011;54412;51.206;6.888;2023-05-23T03:55:16;8.30;;;5.87;;
5245;SDS011;54412;51.206;6.888;2023-05-23T03:57:46;7.27;;;4.93;;
5245;SDS011;54412;51.206;6.888;2023-05-23T04:00:13;6.50;;;5.17;;
5245;SDS011;54412;51.206;6.888;2023-05-23T04:02:39;6.97;;;4.93;;
5245;SDS011;54412;51.206;6.888;2023-05-23T04:05:05;10.23;;;6.27;;
5245;SDS011;54412;51.206;6.888;2023-05-23T04:07:31;10.40;;;5.93;;
5245;SDS011;54412;51.206;6.888;2023-05-23T04:10:01;6.77;;;5.00;;
5245;SDS011;54412;51.206;6.888;2023-05-23T04:12:28;12.90;;;5.63;;
5245;SDS011;54412;51.206;6.888;2023-05-23T04:14:56;5.70;;;4.97;;
5245;SDS011;54412;51.206;6.888;2023-05-23T04:17:22;7.43;;;5.30;;
5245;SDS011;54412;51.206;6.888;2023-05-23T04:19:49;11.40;;;5.10;;
5245;SDS011;54412;51.206;6.888;2023-05-23T04:22:15;7.50;;;5.30;;
5245;SDS011;54412;51.206;6.888;2023-05-23T04:24:41;7.13;;;4.97;;
5245;SDS011;54412;51.206;6.888;2023-05-23T04:27:06;5.50;;;4.50;;
5245;SDS011;54412;51.206;6.888;2023-05-23T04:29:33;5.73;;;4.70;;
5245;SDS011;54412;51.206;6.888;2023-05-23T04:31:59;7.30;;;5.50;;
5245;SDS011;54412;51.206;6.888;2023-05-23T04:34:28;8.53;;;5.70;;
5245;SDS011;54412;51.206;6.888;2023-05-23T04:36:54;6.90;;;4.70;;
5245;SDS011;54412;51.206;6.888;2023-05-23T04:39:21;6.10;;;5.10;;
5245;SDS011;54412;51.206;6.888;2023-05-23T04:41:46;8.90;;;5.83;;
5245;SDS011;54412;51.206;6.888;2023-05-23T04:44:13;8.93;;;5.83;;
5245;SDS011;54412;51.206;6.888;2023-05-23T04:46:39;11.13;;;7.17;;
5245;SDS011;54412;51.206;6.888;2023-05-23T04:49:09;16.67;;;6.60;;
5245;SDS011;54412;51.206;6.888;2023-05-23T04:51:35;9.40;;;6.37;;
5245;SDS011;54412;51.206;6.888;2023-05-23T04:54:02;8.90;;;6.57;;
5245;SDS011;54412;51.206;6.888;2023-05-23T04:56:27;9.80;;;6.67;;
5245;SDS011;54412;51.206;6.888;2023-05-23T04:58:53;7.77;;;6.83;;
5245;SDS011;54412;51.206;6.888;2023-05-23T05:01:20;7.70;;;6.93;;
5245;SDS011;54412;51.206;6.888;2023-05-23T05:03:48;9.43;;;6.20;;
5245;SDS011;54412;51.206;6.888;2023-05-23T05:06:15;10.07;;;6.77;;
5245;SDS011;54412;51.206;6.888;2023-05-23T05:08:41;11.47;;;7.30;;
5245;SDS011;54412;51.206;6.888;2023-05-23T05:11:07;9.37;;;7.53;;
5245;SDS011;54412;51.206;6.888;2023-05-23T05:13:34;9.97;;;7.97;;
5245;SDS011;54412;51.206;6.888;2023-05-23T05:16:00;10.73;;;7.87;;
5245;SDS011;54412;51.206;6.888;2023-05-23T05:18:27;11.53;;;8.10;;
5245;SDS011;54412;51.206;6.888;2023-05-23T05:20:54;11.53;;;8.63;;
5245;SDS011;54412;51.206;6.888;2023-05-23T05:23:23;10.77;;;7.47;;
5245;SDS011;54412;51.206;6.888;2023-05-23T05:25:52;12.60;;;7.67;;
5245;SDS011;54412;51.206;6.888;2023-05-23T05:28:18;15.33;;;8.57;;
5245;SDS011;54412;51.206;6.888;2023-05-23T05:30:45;10.33;;;7.90;;
5245;SDS011;54412;51.206;6.888;2023-05-23T05:33:12;12.23;;;9.13;;
5245;SDS011;54412;51.206;6.888;2023-05-23T05:35:38;11.30;;;9.07;;
5245;SDS011;54412;51.206;6.888;2023-05-23T05:38:04;18.73;;;9.17;;
5245;SDS011;54412;51.206;6.888;2023-05-23T05:40:30;13.57;;;8.30;;
5245;SDS011;54412;51.206;6.888;2023-05-23T05:42:56;14.20;;;10.97;;
5245;SDS011;54412;51.206;6.888;2023-05-23T05:45:22;14.40;;;10.43;;
5245;SDS011;54412;51.206;6.888;2023-05-23T05:47:47;11.40;;;9.87;;
5245;SDS011;54412;51.206;6.888;2023-05-23T05:50:13;17.73;;;10.57;;
5245;SDS011;54412;51.206;6.888;2023-05-23T05:52:39;16.90;;;9.93;;
5245;SDS011;54412;51.206;6.888;2023-05-23T05:55:06;16.37;;;10.47;;
5245;SDS011;54412;51.206;6.888;2023-05-23T05:57:37;11.87;;;9.20;;
5245;SDS011;54412;51.206;6.888;2023-05-23T06:00:07;13.90;;;8.40;;
5245;SDS011;54412;51.206;6.888;2023-05-23T06:02:41;11.40;;;7.97;;
5245;SDS011;54412;51.206;6.888;2023-05-23T06:05:07;11.20;;;8.83;;
5245;SDS011;54412;51.206;6.888;2023-05-23T06:07:38;15.00;;;8.47;;
5245;SDS011;54412;51.206;6.888;2023-05-23T06:10:04;12.10;;;9.30;;
5245;SDS011;54412;51.206;6.888;2023-05-23T06:12:31;18.67;;;11.67;;
5245;SDS011;54412;51.206;6.888;2023-05-23T06:14:57;14.70;;;12.03;;
5245;SDS011;54412;51.206;6.888;2023-05-23T06:17:23;15.53;;;11.53;;
5245;SDS011;54412;51.206;6.888;2023-05-23T06:19:49;16.53;;;10.40;;
5245;SDS011;54412;51.206;6.888;2023-05-23T06:22:15;18.50;;;9.23;;
5245;SDS011;54412;51.206;6.888;2023-05-23T06:24:41;12.17;;;9.30;;
5245;SDS011;54412;51.206;6.888;2023-05-23T06:27:06;13.50;;;8.87;;
5245;SDS011;54412;51.206;6.888;2023-05-23T06:29:32;16.70;;;10.07;;
5245;SDS011;54412;51.206;6.888;2023-05-23T06:31:59;19.57;;;8.80;;
5245;SDS011;54412;51.206;6.888;2023-05-23T06:34:25;11.97;;;8.43;;
5245;SDS011;54412;51.206;6.888;2023-05-23T06:36:51;12.33;;;7.17;;
5245;SDS011;54412;51.206;6.888;2023-05-23T06:39:16;12.37;;;7.30;;
5245;SDS011;54412;51.206;6.888;2023-05-23T06:41:42;13.83;;;7.13;;
5245;SDS011;54412;51.206;6.888;2023-05-23T06:44:08;11.83;;;7.10;;
5245;SDS011;54412;51.206;6.888;2023-05-23T06:46:33;12.00;;;6.33;;
5245;SDS011;54412;51.206;6.888;2023-05-23T06:48:59;11.13;;;7.00;;
5245;SDS011;54412;51.206;6.888;2023-05-23T06:51:25;13.13;;;6.90;;
5245;SDS011;54412;51.206;6.888;2023-05-23T06:53:50;14.43;;;6.57;;
5245;SDS011;54412;51.206;6.888;2023-05-23T06:56:16;23.67;;;6.00;;
5245;SDS011;54412;51.206;6.888;2023-05-23T06:58:42;6.90;;;6.30;;
5245;SDS011;54412;51.206;6.888;2023-05-23T07:01:07;9.23;;;7.00;;
5245;SDS011;54412;51.206;6.888;2023-05-23T07:03:34;9.43;;;6.83;;
5245;SDS011;54412;51.206;6.888;2023-05-23T07:06:02;8.80;;;6.50;;
5245;SDS011;54412;51.206;6.888;2023-05-23T07:08:28;8.77;;;6.80;;
5245;SDS011;54412;51.206;6.888;2023-05-23T07:10:54;8.23;;;6.00;;
5245;SDS011;54412;51.206;6.888;2023-05-23T07:13:19;12.53;;;6.50;;
5245;SDS011;54412;51.206;6.888;2023-05-23T07:15:45;9.93;;;6.40;;
5245;SDS011;54412;51.206;6.888;2023-05-23T07:18:11;9.07;;;6.33;;
5245;SDS011;54412;51.206;6.888;2023-05-23T07:20:36;9.03;;;6.70;;
5245;SDS011;54412;51.206;6.888;2023-05-23T07:23:02;12.20;;;6.63;;
5245;SDS011;54412;51.206;6.888;2023-05-23T07:25:28;10.97;;;7.20;;
5245;SDS011;54412;51.206;6.888;2023-05-23T07:27:53;8.87;;;5.87;;
5245;SDS011;54412;51.206;6.888;2023-05-23T07:30:20;14.37;;;7.50;;
5245;SDS011;54412;51.206;6.888;2023-05-23T07:32:46;12.37;;;7.03;;
5245;SDS011;54412;51.206;6.888;2023-05-23T07:35:15;9.43;;;6.80;;
5245;SDS011;54412;51.206;6.888;2023-05-23T07:37:41;10.30;;;7.10;;
5245;SDS011;54412;51.206;6.888;2023-05-23T07:40:07;14.40;;;7.07;;
5245;SDS011;54412;51.206;6.888;2023-05-23T07:42:33;10.50;;;5.80;;
5245;SDS011;54412;51.206;6.888;2023-05-23T07:44:59;14.10;;;7.17;;
5245;SDS011;54412;51.206;6.888;2023-05-23T07:47:25;14.17;;;6.43;;
5245;SDS011;54412;51.206;6.888;2023-05-23T07:49:51;19.63;;;8.10;;
5245;SDS011;54412;51.206;6.888;2023-05-23T07:52:18;10.40;;;7.10;;
5245;SDS011;54412;51.206;6.888;2023-05-23T07:54:44;13.27;;;6.50;;
5245;SDS011;54412;51.206;6.888;2023-05-23T07:57:10;18.10;;;6.70;;
5245;SDS011;54412;51.206;6.888;2023-05-23T07:59:35;7.73;;;6.30;;
5245;SDS011;54412;51.206;6.888;2023-05-23T08:02:02;13.10;;;6.93;;
5245;SDS011;54412;51.206;6.888;2023-05-23T08:04:28;9.93;;;6.70;;
5245;SDS011;54412;51.206;6.888;2023-05-23T08:06:53;21.93;;;7.27;;
5245;SDS011;54412;51.206;6.888;2023-05-23T08:09:19;20.00;;;6.70;;
5245;SDS011;54412;51.206;6.888;2023-05-23T08:11:47;18.80;;;6.87;;
5245;SDS011;54412;51.206;6.888;2023-05-23T08:14:13;16.40;;;7.90;;
5245;SDS011;54412;51.206;6.888;2023-05-23T08:16:38;12.97;;;8.00;;
5245;SDS011;54412;51.206;6.888;2023-05-23T08:19:04;11.03;;;7.20;;
5245;SDS011;54412;51.206;6.888;2023-05-23T08:21:30;12.20;;;7.17;;
5245;SDS011;54412;51.206;6.888;2023-05-23T08:23:56;7.73;;;6.10;;
5245;SDS011;54412;51.206;6.888;2023-05-23T08:26:22;11.30;;;6.60;;
5245;SDS011;54412;51.206;6.888;2023-05-23T08:28:48;13.23;;;6.93;;
5245;SDS011;54412;51.206;6.888;2023-05-23T08:31:13;11.03;;;6.03;;
5245;SDS011;54412;51.206;6.888;2023-05-23T08:33:39;9.10;;;5.40;;
5245;SDS011;54412;51.206;6.888;2023-05-23T08:36:05;9.47;;;6.40;;
5245;SDS011;54412;51.206;6.888;2023-05-23T08:38:30;11.93;;;7.50;;
5245;SDS011;54412;51.206;6.888;2023-05-23T08:40:56;13.07;;;8.80;;
5245;SDS011;54412;51.206;6.888;2023-05-23T08:43:26;16.13;;;10.93;;
5245;SDS011;54412;51.206;6.888;2023-05-23T08:45:52;23.43;;;13.67;;
5245;SDS011;54412;51.206;6.888;2023-05-23T08:48:19;18.83;;;13.43;;
5245;SDS011;54412;51.206;6.888;2023-05-23T08:50:46;15.93;;;11.63;;
5245;SDS011;54412;51.206;6.888;2023-05-23T08:53:16;16.40;;;10.73;;
5245;SDS011;54412;51.206;6.888;2023-05-23T08:55:44;23.00;;;10.53;;
5245;SDS011;54412;51.206;6.888;2023-05-23T08:58:15;16.90;;;12.17;;
5245;SDS011;54412;51.206;6.888;2023-05-23T09:00:46;17.67;;;12.47;;
5245;SDS011;54412;51.206;6.888;2023-05-23T09:03:14;20.20;;;13.27;;
5245;SDS011;54412;51.206;6.888;2023-05-23T09:05:40;22.37;;;10.30;;
5245;SDS011;54412;51.206;6.888;2023-05-23T09:08:06;19.93;;;9.17;;
5245;SDS011;54412;51.206;6.888;2023-05-23T09:10:32;19.37;;;8.80;;
5245;SDS011;54412;51.206;6.888;2023-05-23T09:12:59;19.63;;;10.90;;
5245;SDS011;54412;51.206;6.888;2023-05-23T09:15:25;18.43;;;11.40;;
5245;SDS011;54412;51.206;6.888;2023-05-23T09:17:51;25.70;;;12.20;;
5245;SDS011;54412;51.206;6.888;2023-05-23T09:20:17;19.33;;;11.53;;
5245;SDS011;54412;51.206;6.888;2023-05-23T09:22:46;14.37;;;9.30;;
5245;SDS011;54412;51.206;6.888;2023-05-23T09:25:13;16.30;;;9.30;;
5245;SDS011;54412;51.206;6.888;2023-05-23T09:27:39;16.53;;;8.10;;
5245;SDS011;54412;51.206;6.888;2023-05-23T09:30:07;13.80;;;8.10;;
5245;SDS011;54412;51.206;6.888;2023-05-23T09:32:35;24.63;;;7.87;;
5245;SDS011;54412;51.206;6.888;2023-05-23T09:35:02;18.70;;;8.53;;
5245;SDS011;54412;51.206;6.888;2023-05-23T09:39:59;22.53;;;10.87;;
5245;SDS011;54412;51.206;6.888;2023-05-23T09:42:32;16.00;;;9.60;;
5245;SDS011;54412;51.206;6.888;2023-05-23T09:44:58;17.43;;;12.90;;
5245;SDS011;54412;51.206;6.888;2023-05-23T09:47:24;24.77;;;16.77;;
5245;SDS011;54412;51.206;6.888;2023-05-23T09:49:51;29.27;;;19.47;;
5245;SDS011;54412;51.206;6.888;2023-05-23T09:52:16;23.27;;;16.57;;
5245;SDS011;54412;51.206;6.888;2023-05-23T09:54:44;16.77;;;11.93;;
5245;SDS011;54412;51.206;6.888;2023-05-23T09:57:11;21.97;;;11.87;;
5245;SDS011;54412;51.206;6.888;2023-05-23T09:59:41;17.90;;;9.80;;
5245;SDS011;54412;51.206;6.888;2023-05-23T10:02:22;43.93;;;10.13;;
5245;SDS011;54412;51.206;6.888;2023-05-23T10:05:34;14.03;;;10.27;;
5245;SDS011;54412;51.206;6.888;2023-05-23T10:13:25;15.07;;;10.40;;
5245;SDS011;54412;51.206;6.888;2023-05-23T10:15:58;24.57;;;12.00;;
5245;SDS011;54412;51.206;6.888;2023-05-23T10:18:40;18.33;;;11.70;;
5245;SDS011;54412;51.206;6.888;2023-05-23T10:21:10;20.53;;;11.97;;
5245;SDS011;54412;51.206;6.888;2023-05-23T10:23:44;23.87;;;13.53;;
5245;SDS011;54412;51.206;6.888;2023-05-23T10:26:12;20.07;;;10.93;;
5245;SDS011;54412;51.206;6.888;2023-05-23T10:28:39;18.40;;;10.00;;
5245;SDS011;54412;51.206;6.888;2023-05-23T10:31:06;16.70;;;9.20;;
5245;SDS011;54412;51.206;6.888;2023-05-23T10:33:34;21.90;;;13.60;;
5245;SDS011;54412;51.206;6.888;2023-05-23T10:36:11;20.70;;;13.27;;
5245;SDS011;54412;51.206;6.888;2023-05-23T10:38:50;17.20;;;12.00;;
5245;SDS011;54412;51.206;6.888;2023-05-23T10:41:33;18.97;;;11.57;;
5245;SDS011;54412;51.206;6.888;2023-05-23T10:46:57;18.20;;;10.63;;
5245;SDS011;54412;51.206;6.888;2023-05-23T10:52:16;22.63;;;12.30;;
5245;SDS011;54412;51.206;6.888;2023-05-23T10:54:43;17.93;;;12.50;;
5245;SDS011;54412;51.206;6.888;2023-05-23T10:57:14;19.37;;;14.57;;
5245;SDS011;54412;51.206;6.888;2023-05-23T10:59:43;21.17;;;14.00;;
5245;SDS011;54412;51.206;6.888;2023-05-23T11:02:14;22.40;;;14.80;;
5245;SDS011;54412;51.206;6.888;2023-05-23T11:04:43;19.63;;;14.20;;
5245;SDS011;54412;51.206;6.888;2023-05-23T11:07:31;19.60;;;13.10;;
5245;SDS011;54412;51.206;6.888;2023-05-23T11:10:09;17.23;;;10.77;;
5245;SDS011;54412;51.206;6.888;2023-05-23T11:12:41;14.97;;;9.93;;
5245;SDS011;54412;51.206;6.888;2023-05-23T11:17:54;11.67;;;7.70;;
5245;SDS011;54412;51.206;6.888;2023-05-23T11:20:24;11.70;;;7.43;;
5245;SDS011;54412;51.206;6.888;2023-05-23T11:22:59;14.27;;;8.40;;
5245;SDS011;54412;51.206;6.888;2023-05-23T11:25:40;11.80;;;8.20;;
5245;SDS011;54412;51.206;6.888;2023-05-23T11:28:12;13.13;;;8.77;;
5245;SDS011;54412;51.206;6.888;2023-05-23T11:30:38;13.20;;;8.13;;
5245;SDS011;54412;51.206;6.888;2023-05-23T11:33:09;14.63;;;7.30;;
5245;SDS011;54412;51.206;6.888;2023-05-23T11:35:40;10.83;;;6.87;;
5245;SDS011;54412;51.206;6.888;2023-05-23T11:38:12;12.00;;;7.10;;
5245;SDS011;54412;51.206;6.888;2023-05-23T11:40:41;13.70;;;7.47;;
5245;SDS011;54412;51.206;6.888;2023-05-23T11:43:10;13.03;;;7.57;;
5245;SDS011;54412;51.206;6.888;2023-05-23T11:45:39;9.93;;;6.70;;
5245;SDS011;54412;51.206;6.888;2023-05-23T11:48:13;13.73;;;7.33;;
5245;SDS011;54412;51.206;6.888;2023-05-23T11:50:44;11.37;;;7.37;;
5245;SDS011;54412;51.206;6.888;2023-05-23T11:53:13;13.27;;;8.77;;
5245;SDS011;54412;51.206;6.888;2023-05-23T11:55:58;8.80;;;7.83;;
5245;SDS011;54412;51.206;6.888;2023-05-23T11:58:27;11.77;;;8.40;;
5245;SDS011;54412;51.206;6.888;2023-05-23T12:01:00;12.77;;;7.50;;
5245;SDS011;54412;51.206;6.888;2023-05-23T12:03:28;9.87;;;6.40;;
5245;SDS011;54412;51.206;6.888;2023-05-23T12:05:57;13.43;;;7.30;;
5245;SDS011;54412;51.206;6.888;2023-05-23T12:08:23;10.63;;;7.43;;
5245;SDS011;54412;51.206;6.888;2023-05-23T12:10:56;14.00;;;9.37;;
5245;SDS011;54412;51.206;6.888;2023-05-23T12:13:24;9.17;;;6.70;;
5245;SDS011;54412;51.206;6.888;2023-05-23T12:15:53;15.63;;;6.70;;
5245;SDS011;54412;51.206;6.888;2023-05-23T12:18:21;9.83;;;7.20;;
5245;SDS011;54412;51.206;6.888;2023-05-23T12:20:47;12.13;;;8.57;;
5245;SDS011;54412;51.206;6.888;2023-05-23T12:23:21;12.20;;;7.20;;
5245;SDS011;54412;51.206;6.888;2023-05-23T12:25:51;11.37;;;6.60;;
5245;SDS011;54412;51.206;6.888;2023-05-23T12:28:33;13.60;;;6.63;;
5245;SDS011;54412;51.206;6.888;2023-05-23T12:33:44;6.50;;;4.40;;
5245;SDS011;54412;51.206;6.888;2023-05-23T12:36:11;10.30;;;4.37;;
5245;SDS011;54412;51.206;6.888;2023-05-23T12:38:48;12.73;;;4.90;;
5245;SDS011;54412;51.206;6.888;2023-05-23T12:41:14;9.67;;;5.50;;
5245;SDS011;54412;51.206;6.888;2023-05-23T12:46:21;17.33;;;5.17;;
5245;SDS011;54412;51.206;6.888;2023-05-23T12:48:51;10.63;;;5.20;;
5245;SDS011;54412;51.206;6.888;2023-05-23T12:51:18;9.33;;;4.73;;
5245;SDS011;54412;51.206;6.888;2023-05-23T12:53:44;15.40;;;5.33;;
5245;SDS011;54412;51.206;6.888;2023-05-23T12:56:10;9.63;;;4.60;;
5245;SDS011;54412;51.206;6.888;2023-05-23T12:58:36;12.87;;;5.03;;
5245;SDS011;54412;51.206;6.888;2023-05-23T13:01:03;13.67;;;5.93;;
5245;SDS011;54412;51.206;6.888;2023-05-23T13:03:29;15.70;;;7.97;;
5245;SDS011;54412;51.206;6.888;2023-05-23T13:05:55;11.03;;;7.27;;
5245;SDS011;54412;51.206;6.888;2023-05-23T13:08:25;11.87;;;7.43;;
5245;SDS011;54412;51.206;6.888;2023-05-23T13:10:53;8.10;;;5.20;;
5245;SDS011;54412;51.206;6.888;2023-05-23T13:13:19;11.13;;;6.10;;
5245;SDS011;54412;51.206;6.888;2023-05-23T13:15:46;14.60;;;6.70;;
5245;SDS011;54412;51.206;6.888;2023-05-23T13:18:12;17.60;;;7.00;;
5245;SDS011;54412;51.206;6.888;2023-05-23T13:20:38;11.50;;;6.43;;
5245;SDS011;54412;51.206;6.888;2023-05-23T13:23:03;12.83;;;6.40;;
5245;SDS011;54412;51.206;6.888;2023-05-23T13:25:31;16.27;;;7.70;;
5245;SDS011;54412;51.206;6.888;2023-05-23T13:27:57;10.87;;;6.80;;
5245;SDS011;54412;51.206;6.888;2023-05-23T13:30:23;20.50;;;9.20;;
5245;SDS011;54412;51.206;6.888;2023-05-23T13:32:49;11.53;;;6.70;;
5245;SDS011;54412;51.206;6.888;2023-05-23T13:35:15;16.90;;;7.57;;
5245;SDS011;54412;51.206;6.888;2023-05-23T13:37:41;20.83;;;7.80;;
5245;SDS011;54412;51.206;6.888;2023-05-23T13:40:07;8.10;;;5.60;;
5245;SDS011;54412;51.206;6.888;2023-05-23T13:42:41;12.70;;;6.10;;
5245;SDS011;54412;51.206;6.888;2023-05-23T13:45:06;12.23;;;5.80;;
5245;SDS011;54412;51.206;6.888;2023-05-23T13:47:33;12.43;;;6.13;;
5245;SDS011;54412;51.206;6.888;2023-05-23T13:49:59;10.03;;;5.57;;
5245;SDS011;54412;51.206;6.888;2023-05-23T13:52:25;13.67;;;6.20;;
5245;SDS011;54412;51.206;6.888;2023-05-23T13:54:50;16.63;;;6.37;;
5245;SDS011;54412;51.206;6.888;2023-05-23T13:57:16;15.07;;;6.47;;
5245;SDS011;54412;51.206;6.888;2023-05-23T13:59:42;9.37;;;5.80;;
5245;SDS011;54412;51.206;6.888;2023-05-23T14:02:07;14.23;;;5.80;;
5245;SDS011;54412;51.206;6.888;2023-05-23T14:04:33;12.97;;;5.40;;
5245;SDS011;54412;51.206;6.888;2023-05-23T14:06:59;14.13;;;5.67;;
5245;SDS011;54412;51.206;6.888;2023-05-23T14:09:24;13.23;;;6.53;;
5245;SDS011;54412;51.206;6.888;2023-05-23T14:11:50;10.87;;;6.50;;
5245;SDS011;54412;51.206;6.888;2023-05-23T14:14:16;9.83;;;7.20;;
5245;SDS011;54412;51.206;6.888;2023-05-23T14:16:42;16.80;;;7.83;;
5245;SDS011;54412;51.206;6.888;2023-05-23T14:19:08;17.33;;;8.87;;
5245;SDS011;54412;51.206;6.888;2023-05-23T14:21:34;14.70;;;6.90;;
5245;SDS011;54412;51.206;6.888;2023-05-23T14:24:00;15.10;;;6.80;;
5245;SDS011;54412;51.206;6.888;2023-05-23T14:26:26;14.53;;;6.60;;
5245;SDS011;54412;51.206;6.888;2023-05-23T14:28:52;16.10;;;7.30;;
5245;SDS011;54412;51.206;6.888;2023-05-23T14:31:18;14.27;;;6.00;;
5245;SDS011;54412;51.206;6.888;2023-05-23T14:33:45;14.93;;;7.00;;
5245;SDS011;54412;51.206;6.888;2023-05-23T14:36:11;24.03;;;7.73;;
5245;SDS011;54412;51.206;6.888;2023-05-23T14:38:37;12.53;;;7.20;;
5245;SDS011;54412;51.206;6.888;2023-05-23T14:41:03;9.57;;;5.80;;
5245;SDS011;54412;51.206;6.888;2023-05-23T14:43:29;9.03;;;5.70;;
5245;SDS011;54412;51.206;6.888;2023-05-23T14:45:55;14.37;;;5.70;;
5245;SDS011;54412;51.206;6.888;2023-05-23T14:48:21;10.90;;;4.30;;
5245;SDS011;54412;51.206;6.888;2023-05-23T14:50:46;9.27;;;4.70;;
5245;SDS011;54412;51.206;6.888;2023-05-23T14:53:12;18.17;;;5.20;;
5245;SDS011;54412;51.206;6.888;2023-05-23T14:55:38;11.60;;;4.47;;
5245;SDS011;54412;51.206;6.888;2023-05-23T14:58:04;16.43;;;4.47;;
5245;SDS011;54412;51.206;6.888;2023-05-23T15:00:30;12.03;;;4.10;;
5245;SDS011;54412;51.206;6.888;2023-05-23T15:02:57;12.63;;;4.83;;
5245;SDS011;54412;51.206;6.888;2023-05-23T15:05:22;8.07;;;3.87;;
5245;SDS011;54412;51.206;6.888;2023-05-23T15:07:49;11.23;;;5.43;;
5245;SDS011;54412;51.206;6.888;2023-05-23T15:10:15;18.20;;;4.63;;
5245;SDS011;54412;51.206;6.888;2023-05-23T15:12:41;18.43;;;5.20;;
5245;SDS011;54412;51.206;6.888;2023-05-23T15:15:07;12.10;;;4.77;;
5245;SDS011;54412;51.206;6.888;2023-05-23T15:17:33;8.23;;;5.70;;
5245;SDS011;54412;51.206;6.888;2023-05-23T15:19:59;9.30;;;5.00;;